createdAt,value
2022-08-26T00:01:59.496Z,5.10
2022-08-26T00:05:04.103Z,5.28
2022-08-26T00:08:08.384Z,5.35
2022-08-26T00:11:16.150Z,5.45
2022-08-26T00:14:31.244Z,5.05
2022-08-26T00:17:35.087Z,5.43
2022-08-26T00:20:39.499Z,5.07
2022-08-26T00:23:46.469Z,5.10
2022-08-26T00:26:49.479Z,5.03
2022-08-26T00:29:52.603Z,5.47
2022-08-26T00:32:57.372Z,5.43
2022-08-26T00:36:01.447Z,5.00
2022-08-26T00:39:07.214Z,5.45
2022-08-26T00:42:10.407Z,5.45
2022-08-26T00:45:14.523Z,5.18
2022-08-26T00:48:20.942Z,5.75
2022-08-26T00:51:29.799Z,6.00
2022-08-26T00:54:36.997Z,5.47
2022-08-26T00:57:40.895Z,5.93
2022-08-26T01:00:45.258Z,5.35
2022-08-26T01:03:48.701Z,5.55
2022-08-26T01:06:53.395Z,5.93
2022-08-26T01:09:57.402Z,6.05
2022-08-26T01:13:10.176Z,5.22
2022-08-26T01:16:15.010Z,5.70
2022-08-26T01:19:21.166Z,5.68
2022-08-26T01:22:31.849Z,5.87
2022-08-26T01:25:39.606Z,6.00
2022-08-26T01:28:50.652Z,5.50
2022-08-26T01:31:57.743Z,5.12
2022-08-26T01:35:01.191Z,6.22
2022-08-26T01:38:04.910Z,5.55
2022-08-26T01:41:16.042Z,5.93
2022-08-26T01:44:22.123Z,5.95
2022-08-26T01:47:26.483Z,5.93
2022-08-26T01:53:33.767Z,5.53
2022-08-26T01:56:36.947Z,5.68
2022-08-26T01:59:39.775Z,5.78
2022-08-26T02:02:44.665Z,5.60
2022-08-26T02:06:04.127Z,5.35
2022-08-26T02:09:08.043Z,6.03
2022-08-26T02:12:12.597Z,5.53
2022-08-26T02:15:15.365Z,6.00
2022-08-26T02:18:20.360Z,6.25
2022-08-26T02:21:25.018Z,5.60
2022-08-26T02:24:47.272Z,5.78
2022-08-26T02:27:51.334Z,5.93
2022-08-26T02:30:55.626Z,5.82
2022-08-26T02:34:21.280Z,5.65
2022-08-26T02:37:30.623Z,6.40
2022-08-26T02:40:36.873Z,7.05
2022-08-26T02:43:40.048Z,5.22
2022-08-26T02:46:47.171Z,5.47
2022-08-26T02:49:50.713Z,5.55
2022-08-26T02:52:53.808Z,5.15
2022-08-26T02:55:56.905Z,5.03
2022-08-26T02:58:59.816Z,5.32
2022-08-26T03:02:04.173Z,6.75
2022-08-26T03:05:08.000Z,5.93
2022-08-26T03:08:14.575Z,6.07
2022-08-26T03:11:18.889Z,5.72
2022-08-26T03:14:24.085Z,6.10
2022-08-26T03:17:27.062Z,5.95
2022-08-26T03:20:30.217Z,6.12
2022-08-26T03:23:33.922Z,5.70
2022-08-26T03:26:38.061Z,5.60
2022-08-26T03:30:00.330Z,5.95
2022-08-26T03:33:04.826Z,5.85
2022-08-26T03:36:08.043Z,6.35
2022-08-26T03:39:12.090Z,6.20
2022-08-26T03:42:16.783Z,5.93
2022-08-26T03:45:21.203Z,6.22
2022-08-26T03:48:23.886Z,5.80
2022-08-26T03:51:28.296Z,6.23
2022-08-26T03:54:31.773Z,6.50
2022-08-26T03:57:37.251Z,5.97
2022-08-26T04:00:41.147Z,5.85
2022-08-26T04:04:01.727Z,7.27
2022-08-26T04:07:06.319Z,6.15
2022-08-26T04:10:11.713Z,6.57
2022-08-26T04:13:16.282Z,5.82
2022-08-26T04:16:20.229Z,6.75
2022-08-26T05:57:54.566Z,7.93
2022-08-26T08:35:43.356Z,5.05
2022-08-26T08:38:46.973Z,4.93
2022-08-26T08:42:04.449Z,4.62
2022-08-26T08:45:35.915Z,4.93
2022-08-26T08:48:43.653Z,4.12
2022-08-26T08:51:51.354Z,4.82
2022-08-26T08:54:54.704Z,4.00
2022-08-26T08:58:06.626Z,4.35
2022-08-26T09:05:56.183Z,4.32
2022-08-26T09:13:39.451Z,4.00
2022-08-26T09:17:01.487Z,3.90
2022-08-26T09:20:18.256Z,4.15
2022-08-26T09:23:25.244Z,3.75
2022-08-26T09:26:41.138Z,4.12
2022-08-26T09:29:45.762Z,4.15
2022-08-26T09:33:10.218Z,3.60
2022-08-26T09:36:26.591Z,4.10
2022-08-26T09:39:57.078Z,4.30
2022-08-26T09:43:23.238Z,4.35
2022-08-26T09:46:28.303Z,4.05
2022-08-26T09:49:41.110Z,4.12
2022-08-26T09:52:44.812Z,3.50
2022-08-26T09:55:52.744Z,3.60
2022-08-26T09:58:57.144Z,3.70
2022-08-26T10:02:19.265Z,3.75
2022-08-26T10:05:51.277Z,2.92
2022-08-26T10:08:57.143Z,3.72
2022-08-26T10:12:08.359Z,3.45
2022-08-26T10:15:13.819Z,4.22
2022-08-26T10:18:32.073Z,3.85
2022-08-26T10:22:31.499Z,3.83
2022-08-26T10:25:47.913Z,3.47
2022-08-26T10:29:15.030Z,3.30
2022-08-26T10:32:31.857Z,3.78
2022-08-26T10:35:44.971Z,3.70
2022-08-26T10:38:48.218Z,4.10
2022-08-26T10:42:02.992Z,3.23
2022-08-26T10:45:20.049Z,3.35
2022-08-26T10:48:26.372Z,3.53
2022-08-26T10:51:57.552Z,3.25
2022-08-26T10:55:23.344Z,3.35
2022-08-26T10:58:48.387Z,3.50
2022-08-26T11:02:29.783Z,3.92
2022-08-26T11:05:35.571Z,4.12
2022-08-26T11:08:50.114Z,3.37
2022-08-26T11:11:54.012Z,3.33
2022-08-26T11:14:59.354Z,3.35
2022-08-26T11:18:05.812Z,3.87
2022-08-26T11:21:47.621Z,3.50
2022-08-26T11:24:57.196Z,3.58
2022-08-26T11:28:05.543Z,3.75
2022-08-26T11:35:15.135Z,3.33
2022-08-26T11:38:25.964Z,3.10
2022-08-26T11:41:31.417Z,3.50
2022-08-26T11:44:58.165Z,3.87
2022-08-26T11:48:27.214Z,3.15
2022-08-26T11:51:31.874Z,2.92
2022-08-26T11:54:39.956Z,3.42
2022-08-26T11:57:48.094Z,3.03
2022-08-26T12:00:58.811Z,3.00
2022-08-26T12:04:07.569Z,3.22
2022-08-26T12:07:12.122Z,3.53
2022-08-26T12:10:29.396Z,4.07
2022-08-26T12:13:33.109Z,3.28
2022-08-26T12:16:39.329Z,3.30
2022-08-26T12:19:44.057Z,3.30
2022-08-26T12:22:50.496Z,3.37
2022-08-26T12:26:05.557Z,3.33
2022-08-26T12:29:27.199Z,3.58
2022-08-26T12:32:31.701Z,2.92
2022-08-26T12:35:41.998Z,3.50
2022-08-26T12:38:47.263Z,4.10
2022-08-26T12:41:53.376Z,3.10
2022-08-26T12:45:03.727Z,3.15
2022-08-26T12:48:26.441Z,3.55
2022-08-26T12:51:33.306Z,3.60
2022-08-26T12:54:57.026Z,3.00
2022-08-26T12:58:14.451Z,3.50
2022-08-26T13:01:25.109Z,3.40
2022-08-26T13:04:42.450Z,3.60
2022-08-26T13:08:12.598Z,3.08
2022-08-26T13:11:29.193Z,3.60
2022-08-26T13:14:32.930Z,3.28
2022-08-26T13:17:37.359Z,3.17
2022-08-26T13:20:44.470Z,3.35
2022-08-26T13:23:48.227Z,3.62
2022-08-26T13:26:54.108Z,3.37
2022-08-26T13:29:58.266Z,2.92
2022-08-26T13:33:02.202Z,3.33
2022-08-26T13:36:07.777Z,3.40
2022-08-26T13:39:12.382Z,2.80
2022-08-26T13:42:16.088Z,3.47
2022-08-26T13:45:19.986Z,3.28
2022-08-26T13:48:24.759Z,3.47
2022-08-26T13:51:28.919Z,3.50
2022-08-26T13:54:32.029Z,3.35
2022-08-26T13:57:35.957Z,3.17
2022-08-26T14:00:39.837Z,3.03
2022-08-26T14:03:44.917Z,3.45
2022-08-26T14:06:49.108Z,2.75
2022-08-26T14:09:55.044Z,3.58
2022-08-26T14:12:59.580Z,3.60
2022-08-26T14:16:04.799Z,3.55
2022-08-26T14:19:08.596Z,3.00
2022-08-26T14:22:11.844Z,3.67
2022-08-26T14:25:15.239Z,2.97
2022-08-26T14:28:18.512Z,3.10
2022-08-26T14:31:25.515Z,3.30
2022-08-26T14:34:28.913Z,3.30
2022-08-26T14:37:32.019Z,3.03
2022-08-26T14:40:37.637Z,3.70
2022-08-26T14:43:44.002Z,2.87
2022-08-26T14:46:53.489Z,3.12
2022-08-26T14:49:58.050Z,3.45
2022-08-26T14:53:19.767Z,2.90
2022-08-26T14:56:23.421Z,3.17
2022-08-26T14:59:32.045Z,3.55
2022-08-26T15:02:37.362Z,4.00
2022-08-26T15:05:48.105Z,3.03
2022-08-26T15:08:51.982Z,3.40
2022-08-26T15:11:55.614Z,3.87
2022-08-26T15:14:58.830Z,3.25
2022-08-26T15:18:02.626Z,3.47
2022-08-26T15:21:07.699Z,3.60
2022-08-26T15:24:11.656Z,3.92
2022-08-26T15:27:14.879Z,3.37
2022-08-26T15:30:18.583Z,3.35
2022-08-26T15:33:21.671Z,3.28
2022-08-26T15:36:26.867Z,2.90
2022-08-26T15:39:30.793Z,3.53
2022-08-26T15:42:34.021Z,3.05
2022-08-26T15:45:37.822Z,2.95
2022-08-26T15:48:41.077Z,2.95
2022-08-26T15:51:45.334Z,3.72
2022-08-26T15:54:49.684Z,3.78
2022-08-26T15:57:56.215Z,3.33
2022-08-26T16:01:00.747Z,3.72
2022-08-26T16:04:06.047Z,3.40
2022-08-26T16:07:08.904Z,3.58
2022-08-26T16:10:13.468Z,3.17
2022-08-26T16:13:16.707Z,3.15
2022-08-26T16:16:21.765Z,3.72
2022-08-26T16:19:24.786Z,3.67
2022-08-26T16:22:28.593Z,3.60
2022-08-26T16:25:31.951Z,3.42
2022-08-26T16:28:35.095Z,3.20
2022-08-26T16:31:39.721Z,3.42
2022-08-26T16:34:46.934Z,3.08
2022-08-26T16:38:01.175Z,3.75
2022-08-26T16:41:05.036Z,3.03
2022-08-26T16:44:08.965Z,3.92
2022-08-26T16:47:19.070Z,3.60
2022-08-26T16:50:23.560Z,3.15
2022-08-26T16:53:27.057Z,3.62
2022-08-26T16:56:34.125Z,4.18
2022-08-26T16:59:40.675Z,3.95
2022-08-26T17:02:43.985Z,4.03
2022-08-26T17:05:47.144Z,4.07
2022-08-26T17:08:51.074Z,2.92
2022-08-26T17:11:55.323Z,3.92
2022-08-26T17:14:58.219Z,3.03
2022-08-26T17:21:08.543Z,4.22
2022-08-26T17:24:12.467Z,3.78
2022-08-26T17:27:16.787Z,3.78
2022-08-26T17:30:23.439Z,3.47
2022-08-26T17:33:29.484Z,3.70
2022-08-26T17:36:35.211Z,4.12
2022-08-26T17:39:42.756Z,4.10
2022-08-26T17:42:45.992Z,3.50
2022-08-26T17:45:49.577Z,3.70
2022-08-26T17:49:07.868Z,3.40
2022-08-26T17:52:14.533Z,3.65
2022-08-26T17:55:18.841Z,4.00
2022-08-26T17:58:25.036Z,3.50
2022-08-26T18:01:29.544Z,4.10
2022-08-26T18:04:34.639Z,3.42
2022-08-26T18:07:43.779Z,5.05
2022-08-26T18:10:47.722Z,3.80
2022-08-26T18:13:51.310Z,3.80
2022-08-26T18:16:55.831Z,3.58
2022-08-26T18:20:00.913Z,4.32
2022-08-26T18:23:06.028Z,3.87
2022-08-26T18:26:31.777Z,4.25
2022-08-26T18:29:36.204Z,3.83
2022-08-26T18:32:52.157Z,3.85
2022-08-26T18:35:58.947Z,3.42
2022-08-26T18:42:06.725Z,3.55
2022-08-26T18:45:16.264Z,3.75
2022-08-26T18:48:21.323Z,3.83
2022-08-26T18:51:29.859Z,4.22
2022-08-26T18:54:33.334Z,3.83
2022-08-26T18:57:36.390Z,3.40
2022-08-26T19:00:39.581Z,3.97
2022-08-26T19:03:45.018Z,3.80
2022-08-26T19:06:51.068Z,4.03
2022-08-26T19:09:54.779Z,3.37
2022-08-26T19:16:18.888Z,4.12
2022-08-26T19:19:26.474Z,3.30
2022-08-26T19:22:49.750Z,3.35
2022-08-26T19:25:53.471Z,3.37
2022-08-26T19:28:57.164Z,3.53
2022-08-26T19:35:04.663Z,3.10
2022-08-26T19:38:09.794Z,3.95
2022-08-26T19:41:15.664Z,3.58
2022-08-26T19:44:40.222Z,3.83
2022-08-26T19:47:43.704Z,3.87
2022-08-26T19:50:47.387Z,3.12
2022-08-26T19:53:51.290Z,3.50
2022-08-26T19:56:56.254Z,2.92
2022-08-26T20:00:17.810Z,3.75
2022-08-26T20:03:24.824Z,3.30
2022-08-26T20:06:35.160Z,3.17
2022-08-26T20:09:40.649Z,3.70
2022-08-26T20:12:45.129Z,3.33
2022-08-26T20:15:48.900Z,3.30
2022-08-26T20:19:13.681Z,2.67
2022-08-26T20:22:17.872Z,3.53
2022-08-26T20:25:22.046Z,3.50
2022-08-26T20:28:25.666Z,3.10
2022-08-26T20:31:29.529Z,2.85
2022-08-26T20:37:37.882Z,2.90
2022-08-26T20:40:42.412Z,3.28
2022-08-26T20:43:46.404Z,3.08
2022-08-26T20:46:50.825Z,3.28
2022-08-26T20:49:53.964Z,2.95
2022-08-26T20:53:01.237Z,2.62
2022-08-26T20:56:07.318Z,2.80
2022-08-26T21:03:52.882Z,3.08
2022-08-26T21:07:33.745Z,3.30
2022-08-26T21:10:39.237Z,4.07
2022-08-26T21:14:04.076Z,3.40
2022-08-26T21:40:38.958Z,4.43
2022-08-26T21:43:48.166Z,4.43
2022-08-26T22:39:29.337Z,3.15
2022-08-26T22:42:33.905Z,3.17
2022-08-26T22:45:46.942Z,3.42
2022-08-26T22:48:54.002Z,4.50
2022-08-26T22:51:58.719Z,5.37
2022-08-26T22:59:08.886Z,5.05
2022-08-26T23:02:13.625Z,5.70
2022-08-26T23:13:53.353Z,4.78
2022-08-26T23:17:38.699Z,5.30
2022-08-26T23:21:05.295Z,5.20
2022-08-26T23:24:10.673Z,5.32
2022-08-26T23:27:14.190Z,4.72
2022-08-26T23:30:23.388Z,4.40
2022-08-26T23:33:47.845Z,5.10
2022-08-26T23:36:52.845Z,5.00
2022-08-26T23:39:58.877Z,4.68
2022-08-26T23:43:06.806Z,4.40
2022-08-26T23:46:10.629Z,5.10
2022-08-26T23:49:29.515Z,5.30
2022-08-26T23:55:56.781Z,4.68
2022-08-26T23:59:00.968Z,4.35
